INDIA METEOROLOGICAL DEPARTMENT, R.M.C. NEW DELHI
Dated:24 - 6 - 2018
METARS OF ALTERNATE AIRPORTS
Delhi      
VIDP 240100Z 32003KT 3000 HZ SCT040 BKN100 34/18 Q1000 NOSIG =
Amritsar   
VIAR 240100Z VRB02KT 3000 BR NSC 27/21 Q1000 NOSIG=
Lucknow    
VILK 240030Z 09003KT 3000 HZ FEW020 SCT100 31/26 Q0998 NOSIG=
Jaipur     
VIJP 240100Z 30002KT 2000 HZ SCT035 BKN100 33/19 Q1001 NOSIG=
Ahmedabad  
VAAH 240100Z 13008KT 3000 -TSRA SCT012 SCT020 BKN080 FEW030CB 26/23 Q1003 TEMPO 2000 TSRA=
Udaipur    
VAUD 240100Z 23004KT 4000 HZ FEW030 SCT100 29/23 Q1004 NOSIG=
Mumbai     
VABB 240100Z 17004KT 2100 -RA FEW012 SCT018 FEW030CB OVC080 26/25 Q1003 TEMPO 1500 SHRA=